Time;durP1;ratioP1;P1;durP2;ratioP2;P2;SDS_P1;SDS_P2;PMS_P1;PMS_P2;Temp;Humidity;BMP_temperature;BMP_pressure;BME280_temperature;BME280_humidity;BME280_pressure;Samples;Min_cycle;Max_cycle;Signal;HPM_P1;HPM_P2
2023/04/29 03:00:19;;;;;;;20.70;11.70;;;10.40;99.90;;;;;;6038763;23;20261;-75
2023/04/29 03:02:45;;;;;;;16.90;6.50;;;10.40;99.90;;;;;;4974277;28;20293;-76
2023/04/29 03:05:11;;;;;;;32.77;7.23;;;10.40;99.90;;;;;;4973344;28;20343;-77
2023/04/29 03:07:37;;;;;;;22.13;6.20;;;10.40;99.90;;;;;;4972809;28;20727;-76
2023/04/29 03:10:03;;;;;;;35.80;7.33;;;10.40;99.90;;;;;;4972234;28;20185;-76
2023/04/29 03:12:29;;;;;;;30.43;6.00;;;10.50;99.90;;;;;;4971898;28;20229;-76
2023/04/29 03:14:55;;;;;;;44.23;6.07;;;10.60;99.90;;;;;;5000511;23;20258;-80
2023/04/29 03:17:21;;;;;;;27.67;6.60;;;10.50;99.90;;;;;;4993697;28;20220;-80
2023/04/29 03:19:47;;;;;;;23.37;7.07;;;10.50;99.90;;;;;;4995301;28;20191;-80
2023/04/29 03:22:13;;;;;;;23.00;7.57;;;10.50;99.90;;;;;;4995860;28;20187;-79
2023/04/29 03:24:38;;;;;;;12.17;8.27;;;10.50;99.90;;;;;;4995272;28;20196;-80
2023/04/29 03:27:04;;;;;;;19.73;6.90;;;10.50;99.90;;;;;;4978801;28;20962;-77
2023/04/29 03:29:31;;;;;;;19.53;5.83;;;10.40;99.90;;;;;;4990601;28;20196;-77
2023/04/29 03:31:57;;;;;;;16.50;5.50;;;10.40;99.90;;;;;;4992445;28;20184;-77
2023/04/29 03:34:23;;;;;;;17.87;9.30;;;10.40;99.90;;;;;;4992373;28;20184;-77
2023/04/29 03:36:53;;;;;;;14.63;8.03;;;10.30;99.90;;;;;;4990614;28;20207;-77
2023/04/29 03:39:18;;;;;;;10.47;6.50;;;10.30;99.90;;;;;;4982650;28;20215;-77
2023/04/29 03:41:46;;;;;;;31.83;5.70;;;10.30;99.90;;;;;;4972888;28;20213;-77
2023/04/29 03:44:12;;;;;;;6.17;5.17;;;10.30;99.90;;;;;;4974713;28;20191;-78
2023/04/29 03:46:38;;;;;;;14.57;4.73;;;10.30;99.90;;;;;;4971499;28;20267;-77
2023/04/29 03:49:03;;;;;;;28.57;5.53;;;10.30;99.90;;;;;;4971133;28;20189;-77
2023/04/29 03:51:30;;;;;;;26.80;5.10;;;10.30;99.90;;;;;;4975453;28;20544;-77
2023/04/29 03:53:56;;;;;;;17.50;5.33;;;10.30;99.90;;;;;;4984673;28;20656;-79
2023/04/29 03:56:24;;;;;;;16.97;7.13;;;10.30;99.90;;;;;;4982950;28;20220;-79
2023/04/29 03:58:51;;;;;;;21.23;7.20;;;10.30;99.90;;;;;;4973561;28;20188;-79
2023/04/29 04:01:17;;;;;;;17.60;7.37;;;10.30;99.90;;;;;;4973091;28;20192;-77
2023/04/29 04:03:42;;;;;;;11.57;6.87;;;10.30;99.90;;;;;;4972958;28;20650;-77
2023/04/29 04:06:08;;;;;;;13.13;5.57;;;10.40;99.90;;;;;;4972099;28;20300;-78
2023/04/29 04:08:34;;;;;;;18.00;5.50;;;10.30;99.90;;;;;;4980760;28;20187;-77
2023/04/29 04:11:02;;;;;;;25.60;6.57;;;10.20;99.90;;;;;;4992469;28;20196;-79
2023/04/29 04:13:28;;;;;;;13.77;6.73;;;10.20;99.90;;;;;;5003986;28;20277;-80
2023/04/29 04:15:54;;;;;;;17.90;6.03;;;10.20;99.90;;;;;;5004229;28;20218;-80
2023/04/29 04:18:20;;;;;;;8.87;5.23;;;10.20;99.90;;;;;;5010476;28;20194;-82
2023/04/29 04:20:46;;;;;;;8.23;6.47;;;10.20;99.90;;;;;;5014063;28;20185;-80
2023/04/29 04:23:12;;;;;;;9.47;6.43;;;10.20;99.90;;;;;;5000800;28;20200;-79
2023/04/29 04:25:47;;;;;;;7.80;4.97;;;10.20;99.90;;;;;;5004037;28;20196;-80
2023/04/29 04:28:13;;;;;;;17.20;7.67;;;10.30;99.90;;;;;;4994501;28;20166;-80
2023/04/29 04:30:39;;;;;;;23.87;6.67;;;10.30;99.90;;;;;;4996420;28;20280;-79
2023/04/29 04:33:05;;;;;;;25.43;8.30;;;10.30;99.90;;;;;;4990185;28;20185;-80
2023/04/29 04:35:31;;;;;;;14.00;8.30;;;10.40;99.90;;;;;;4987592;28;20208;-81
2023/04/29 04:37:58;;;;;;;16.40;8.17;;;10.40;99.90;;;;;;4998114;28;20639;-81
2023/04/29 04:40:23;;;;;;;15.17;8.07;;;10.50;99.90;;;;;;5003669;28;20187;-80
2023/04/29 04:42:49;;;;;;;13.83;5.20;;;10.50;99.90;;;;;;5002874;28;20180;-81
2023/04/29 04:45:15;;;;;;;16.33;5.60;;;10.50;99.90;;;;;;5002085;28;20851;-80
2023/04/29 04:47:41;;;;;;;14.23;5.87;;;10.50;99.90;;;;;;5002415;28;20235;-80
2023/04/29 04:50:08;;;;;;;23.03;16.67;;;10.50;99.90;;;;;;5004731;28;20180;-80
2023/04/29 04:52:34;;;;;;;36.27;11.27;;;10.60;99.90;;;;;;4995227;28;20181;-81
2023/04/29 04:55:00;;;;;;;19.83;6.43;;;10.60;99.90;;;;;;4988765;28;20201;-81
2023/04/29 04:57:26;;;;;;;19.13;6.20;;;10.50;99.90;;;;;;4996478;28;20224;-82
2023/04/29 04:59:52;;;;;;;29.73;6.83;;;10.50;99.90;;;;;;4994918;28;20211;-81
2023/04/29 05:02:18;;;;;;;20.67;9.77;;;10.50;99.90;;;;;;4992780;28;20184;-79
2023/04/29 05:04:45;;;;;;;57.67;6.67;;;10.50;99.90;;;;;;4987970;28;20211;-80
2023/04/29 05:07:11;;;;;;;70.40;8.80;;;10.50;99.90;;;;;;5001847;28;20270;-80
2023/04/29 05:09:36;;;;;;;35.87;6.97;;;10.50;99.90;;;;;;5008287;28;20188;-80
2023/04/29 05:12:02;;;;;;;45.30;11.77;;;10.50;99.90;;;;;;5007690;28;20185;-80
2023/04/29 05:14:28;;;;;;;56.90;19.17;;;10.70;99.90;;;;;;5007890;28;20228;-80
2023/04/29 05:16:58;;;;;;;54.80;18.10;;;10.70;99.90;;;;;;5007121;28;20216;-80
2023/04/29 05:19:24;;;;;;;65.83;14.03;;;10.80;99.90;;;;;;5005742;28;20668;-79
2023/04/29 05:21:50;;;;;;;46.80;20.37;;;10.90;99.90;;;;;;5006801;28;20180;-80
2023/04/29 05:24:16;;;;;;;81.23;13.53;;;11.00;99.90;;;;;;4988557;28;20248;-80
2023/04/29 05:26:42;;;;;;;54.67;9.73;;;11.00;99.90;;;;;;4988093;28;20649;-79
2023/04/29 05:29:12;;;;;;;44.83;11.13;;;11.00;99.90;;;;;;4990197;28;20331;-80
2023/04/29 05:31:38;;;;;;;58.10;25.00;;;10.90;99.90;;;;;;4988476;28;20675;-80
2023/04/29 05:34:04;;;;;;;80.63;23.13;;;10.90;99.90;;;;;;4985743;28;20236;-81
2023/04/29 05:36:30;;;;;;;50.53;15.60;;;10.90;99.90;;;;;;4986578;28;20216;-80
2023/04/29 05:38:56;;;;;;;24.40;18.70;;;10.80;99.90;;;;;;5005277;28;20185;-80
2023/04/29 05:41:23;;;;;;;23.30;8.20;;;10.90;99.90;;;;;;5003855;28;20256;-80
2023/04/29 05:43:50;;;;;;;16.07;8.97;;;10.90;99.90;;;;;;4999388;28;20257;-81
2023/04/29 05:46:16;;;;;;;20.50;8.57;;;11.00;99.90;;;;;;4972198;28;20213;-80
2023/04/29 05:48:42;;;;;;;22.90;20.90;;;11.00;99.90;;;;;;4963983;28;20332;-80
2023/04/29 05:51:08;;;;;;;23.80;21.90;;;11.00;99.90;;;;;;4970876;28;20548;-81
2023/04/29 05:53:35;;;;;;;13.83;13.13;;;10.80;99.90;;;;;;4991997;28;20252;-81
2023/04/29 05:56:05;;;;;;;29.23;27.73;;;10.90;99.90;;;;;;4986425;28;20543;-80
2023/04/29 05:58:31;;;;;;;29.70;28.20;;;11.00;99.90;;;;;;4983961;28;20277;-81
2023/04/29 06:00:56;;;;;;;28.20;26.50;;;11.00;99.90;;;;;;4986648;28;20182;-81
2023/04/29 06:03:22;;;;;;;31.27;29.57;;;11.00;99.90;;;;;;4986313;28;20181;-80
2023/04/29 06:05:48;;;;;;;29.47;27.97;;;11.00;99.90;;;;;;5002926;28;20200;-80
2023/04/29 06:08:14;;;;;;;27.40;26.03;;;11.00;99.90;;;;;;5003582;28;20188;-81
2023/04/29 06:10:40;;;;;;;15.47;14.63;;;11.10;99.90;;;;;;5004254;28;20235;-80
2023/04/29 06:13:06;;;;;;;14.47;13.50;;;11.10;99.90;;;;;;5002783;28;20559;-81
2023/04/29 06:15:32;;;;;;;9.90;9.30;;;11.20;99.90;;;;;;5002123;28;20227;-81
2023/04/29 06:17:57;;;;;;;8.47;7.97;;;11.20;99.90;;;;;;4988306;28;20185;-79
2023/04/29 06:20:23;;;;;;;9.20;8.70;;;11.20;99.90;;;;;;5006888;28;20235;-81
2023/04/29 06:22:49;;;;;;;12.13;11.47;;;11.30;99.90;;;;;;5008492;28;20184;-80
2023/04/29 06:25:15;;;;;;;8.87;8.23;;;11.30;99.90;;;;;;5007568;28;20345;-80
2023/04/29 06:27:41;;;;;;;6.47;6.07;;;11.40;99.90;;;;;;5003146;28;20345;-80
2023/04/29 06:30:07;;;;;;;8.70;8.07;;;11.50;99.90;;;;;;5007593;28;20208;-81
2023/04/29 06:32:33;;;;;;;7.30;6.83;;;11.60;99.90;;;;;;5004996;28;20181;-80
2023/04/29 06:34:59;;;;;;;39.83;37.53;;;11.70;99.90;;;;;;4992250;28;20200;-82
2023/04/29 06:37:24;;;;;;;29.67;27.97;;;11.90;99.90;;;;;;5003289;28;20279;-80
2023/04/29 06:39:50;;;;;;;33.63;31.63;;;12.20;99.90;;;;;;5008087;28;20629;-79
2023/04/29 06:42:16;;;;;;;26.97;25.23;;;12.40;99.90;;;;;;5008007;28;20176;-80
2023/04/29 06:44:42;;;;;;;44.13;41.47;;;12.60;99.90;;;;;;4991035;28;20224;-80
2023/04/29 06:47:08;;;;;;;85.73;81.00;;;12.70;99.90;;;;;;4999748;28;20244;-82
2023/04/29 06:49:34;;;;;;;136.67;128.80;;;13.00;99.90;;;;;;4984690;28;20193;-81
2023/04/29 06:52:01;;;;;;;73.87;69.70;;;13.60;99.90;;;;;;4978900;28;20252;-82
2023/04/29 06:54:27;;;;;;;40.70;38.30;;;14.00;99.90;;;;;;4983246;28;20209;-81
2023/04/29 06:56:53;;;;;;;34.07;32.17;;;14.20;99.90;;;;;;4995413;28;20225;-81
2023/04/29 06:59:24;;;;;;;31.87;29.90;;;14.30;99.90;;;;;;4995634;28;20196;-81
2023/04/29 07:01:51;;;;;;;34.63;32.47;;;14.10;99.90;;;;;;5005265;28;20976;-78
2023/04/29 07:04:16;;;;;;;97.33;91.83;;;14.00;99.90;;;;;;5013521;28;20172;-81
2023/04/29 07:06:45;;;;;;;133.87;126.63;;;13.80;99.90;;;;;;5017935;28;20188;-80
2023/04/29 07:09:22;;;;;;;31.40;29.40;;;13.60;99.90;;;;;;4991322;28;20303;-82
2023/04/29 07:11:48;;;;;;;88.17;83.23;;;13.70;99.90;;;;;;4989089;28;20185;-81
2023/04/29 07:14:14;;;;;;;129.53;122.13;;;13.90;99.90;;;;;;4986833;28;20189;-79
2023/04/29 07:16:40;;;;;;;105.77;99.80;;;14.00;99.90;;;;;;4989715;28;20216;-79
2023/04/29 07:19:06;;;;;;;74.47;70.13;;;14.20;99.90;;;;;;4986015;28;20185;-80
2023/04/29 07:21:32;;;;;;;73.07;68.80;;;14.50;99.90;;;;;;4985337;28;20557;-78
2023/04/29 07:24:01;;;;;;;91.53;86.43;;;15.20;99.90;;;;;;4978977;28;20617;-81
2023/04/29 07:26:27;;;;;;;27.23;25.47;;;15.50;99.90;;;;;;4982901;28;20220;-80
2023/04/29 07:28:53;;;;;;;73.97;70.10;;;15.50;99.90;;;;;;4985148;28;20185;-80
2023/04/29 07:31:19;;;;;;;33.83;32.00;;;15.20;99.90;;;;;;4993183;28;20188;-81
2023/04/29 07:33:46;;;;;;;17.57;16.70;;;15.00;99.90;;;;;;5004003;28;20195;-81
2023/04/29 07:36:12;;;;;;;28.47;26.77;;;15.10;99.90;;;;;;4988113;28;20716;-81
2023/04/29 07:38:37;;;;;;;34.63;32.50;;;15.30;99.90;;;;;;4986400;28;20180;-81
2023/04/29 07:41:03;;;;;;;25.93;24.53;;;15.40;99.90;;;;;;4995714;28;20188;-80
2023/04/29 07:43:29;;;;;;;28.73;27.03;;;15.60;99.90;;;;;;5000094;28;20204;-80
2023/04/29 07:45:55;;;;;;;31.73;29.63;;;15.60;99.90;;;;;;5014577;28;20215;-81
2023/04/29 07:48:21;;;;;;;24.43;23.03;;;15.60;99.90;;;;;;5013996;28;20600;-81
2023/04/29 07:50:47;;;;;;;21.63;19.83;;;15.50;99.90;;;;;;5007135;28;20184;-81
2023/04/29 07:53:14;;;;;;;17.97;16.60;;;15.40;99.90;;;;;;5012642;28;20189;-81
2023/04/29 07:55:40;;;;;;;17.50;16.53;;;15.30;99.90;;;;;;5011585;28;20267;-79
2023/04/29 07:58:06;;;;;;;12.00;11.20;;;15.30;99.90;;;;;;5013140;28;20177;-79
2023/04/29 08:00:32;;;;;;;9.00;8.40;;;15.30;99.90;;;;;;4998032;28;20179;-80
2023/04/29 08:02:58;;;;;;;10.53;9.87;;;15.40;99.90;;;;;;4994613;28;20212;-82
2023/04/29 08:05:24;;;;;;;12.80;12.20;;;15.50;99.90;;;;;;4986601;28;20900;-80
2023/04/29 08:07:50;;;;;;;25.73;24.33;;;15.60;99.90;;;;;;4984818;28;20185;-81
2023/04/29 08:10:17;;;;;;;29.23;27.57;;;15.60;99.90;;;;;;4985003;28;20192;-81
2023/04/29 08:12:47;;;;;;;35.47;33.57;;;15.60;99.90;;;;;;4990509;28;20176;-80
2023/04/29 08:15:13;;;;;;;25.40;24.10;;;15.60;99.90;;;;;;5002854;28;20215;-80
2023/04/29 08:17:39;;;;;;;18.53;17.53;;;15.50;99.90;;;;;;5002825;28;20246;-81
2023/04/29 08:20:06;;;;;;;19.60;18.50;;;15.30;99.90;;;;;;5003957;28;20183;-81
2023/04/29 08:22:32;;;;;;;19.87;18.77;;;15.40;99.90;;;;;;5004514;28;20180;-79
2023/04/29 08:24:58;;;;;;;19.57;18.67;;;15.40;99.90;;;;;;5003320;28;20770;-80
2023/04/29 08:27:24;;;;;;;15.87;15.07;;;15.60;99.90;;;;;;4995236;28;20177;-80
2023/04/29 08:29:50;;;;;;;16.60;15.73;;;15.60;99.90;;;;;;4983617;28;20192;-81
2023/04/29 08:32:16;;;;;;;12.83;12.03;;;15.60;99.90;;;;;;4971431;28;20197;-80
2023/04/29 08:34:43;;;;;;;13.30;12.43;;;15.60;99.90;;;;;;4981742;28;20205;-80
2023/04/29 08:37:09;;;;;;;15.63;14.53;;;15.40;99.90;;;;;;4982225;28;20873;-81
2023/04/29 08:39:35;;;;;;;11.87;11.27;;;15.50;99.90;;;;;;4984557;28;20177;-78
2023/04/29 08:42:10;;;;;;;10.33;9.83;;;15.50;99.90;;;;;;4999342;28;20196;-80
2023/04/29 08:44:37;;;;;;;10.30;9.80;;;15.60;99.90;;;;;;5003671;28;20203;-80
2023/04/29 08:47:03;;;;;;;10.83;10.33;;;15.80;99.90;;;;;;5001911;28;20207;-80
2023/04/29 08:49:31;;;;;;;19.63;18.63;;;16.00;99.90;;;;;;4991490;28;20312;-79
2023/04/29 08:51:57;;;;;;;42.13;40.10;;;16.10;99.90;;;;;;4983025;28;20252;-79
2023/04/29 08:54:22;;;;;;;54.63;51.87;;;16.10;99.90;;;;;;4981282;28;20677;-79
2023/04/29 08:56:50;;;;;;;60.73;57.73;;;16.20;99.90;;;;;;4987667;28;20223;-77
2023/04/29 08:59:17;;;;;;;57.80;54.87;;;16.20;99.90;;;;;;4996062;28;20187;-79
2023/04/29 09:01:49;;;;;;;41.73;39.67;;;16.30;99.90;;;;;;4999329;28;20719;-80
2023/04/29 09:04:33;;;;;;;47.90;45.53;;;16.40;99.90;;;;;;4997171;28;20189;-82
2023/04/29 09:07:00;;;;;;;35.93;34.10;;;16.50;99.90;;;;;;4994801;28;20216;-77
2023/04/29 09:09:26;;;;;;;25.50;24.20;;;16.60;99.90;;;;;;4978128;28;20281;-76
2023/04/29 09:11:53;;;;;;;14.20;13.47;;;16.60;99.90;;;;;;4954024;28;20190;-77
2023/04/29 09:14:19;;;;;;;14.63;13.73;;;16.50;99.90;;;;;;4953239;28;20232;-78
2023/04/29 09:16:46;;;;;;;14.57;13.87;;;16.40;99.90;;;;;;5011689;23;20224;-77
2023/04/29 09:19:29;;;;;;;17.83;16.83;;;16.50;99.90;;;;;;5000987;28;20235;-79
2023/04/29 09:21:56;;;;;;;20.70;19.70;;;16.90;99.90;;;;;;4997646;28;20648;-81
2023/04/29 09:24:28;;;;;;;9.97;9.37;;;17.40;99.90;;;;;;4998217;28;20184;-81
2023/04/29 09:26:55;;;;;;;6.10;5.70;;;17.90;99.90;;;;;;4993678;28;20216;-80
2023/04/29 09:29:21;;;;;;;6.60;6.27;;;18.20;99.90;;;;;;4960010;28;20661;-80
2023/04/29 09:31:48;;;;;;;7.37;6.93;;;18.20;99.90;;;;;;4976490;28;20658;-77
2023/04/29 09:34:15;;;;;;;10.60;10.10;;;18.20;99.90;;;;;;4971187;28;20259;-76
2023/04/29 09:36:46;;;;;;;5.87;5.37;;;18.20;99.90;;;;;;4972272;28;20225;-77
2023/04/29 09:39:16;;;;;;;5.23;4.23;;;18.20;99.90;;;;;;4985866;28;20180;-77
2023/04/29 09:41:51;;;;;;;4.77;4.57;;;18.10;99.90;;;;;;4993800;28;20601;-77
2023/04/29 09:44:29;;;;;;;5.17;4.87;;;18.20;99.90;;;;;;4992599;28;20239;-78
2023/04/29 09:47:02;;;;;;;4.97;4.67;;;17.80;99.90;;;;;;4993426;28;20616;-78
2023/04/29 09:49:40;;;;;;;5.03;4.80;;;17.50;99.90;;;;;;4992568;28;20195;-77
2023/04/29 09:52:12;;;;;;;5.93;4.90;;;17.50;99.90;;;;;;4992490;28;20625;-77
2023/04/29 09:54:39;;;;;;;5.20;4.90;;;17.50;99.90;;;;;;4974020;28;20209;-77
2023/04/29 09:57:06;;;;;;;4.83;4.43;;;17.50;99.90;;;;;;4973947;28;20279;-77
2023/04/29 09:59:37;;;;;;;6.17;5.87;;;17.60;99.90;;;;;;4972846;28;20256;-76
2023/04/29 10:02:09;;;;;;;5.97;5.67;;;17.80;99.90;;;;;;4974322;28;20188;-76
2023/04/29 10:04:39;;;;;;;6.53;6.23;;;18.00;99.90;;;;;;4974151;28;20205;-78
2023/04/29 10:07:06;;;;;;;7.00;6.33;;;18.40;99.90;;;;;;4978855;28;20345;-76
2023/04/29 10:09:32;;;;;;;18.13;17.17;;;18.80;99.90;;;;;;4992260;28;20251;-77
2023/04/29 10:12:01;;;;;;;28.00;26.60;;;18.70;99.90;;;;;;4993185;28;20188;-78
2023/04/29 10:14:27;;;;;;;33.27;31.27;;;18.30;99.90;;;;;;4993094;28;20180;-78
2023/04/29 10:17:05;;;;;;;13.40;12.70;;;17.90;99.90;;;;;;4955412;28;1106000;-78
2023/04/29 10:19:38;;;;;;;6.80;6.40;;;17.60;99.90;;;;;;4994686;28;20660;-77
2023/04/29 10:22:12;;;;;;;12.63;12.03;;;17.60;99.90;;;;;;4980608;28;20189;-78
2023/04/29 10:24:39;;;;;;;5.47;5.10;;;17.40;99.90;;;;;;4974524;28;20177;-77
2023/04/29 10:27:11;;;;;;;7.73;7.30;;;17.30;99.90;;;;;;4974527;28;20612;-78
2023/04/29 10:29:38;;;;;;;7.63;7.03;;;17.60;99.90;;;;;;4974553;28;20189;-78
2023/04/29 10:32:08;;;;;;;15.23;14.23;;;17.90;99.90;;;;;;4974630;28;20275;-78
2023/04/29 10:34:38;;;;;;;10.47;9.87;;;17.80;99.90;;;;;;4973341;28;20216;-78
2023/04/29 10:37:07;;;;;;;15.03;13.93;;;17.60;99.90;;;;;;4972838;28;20569;-77
2023/04/29 10:39:47;;;;;;;19.63;17.93;;;17.80;99.90;;;;;;4973244;28;20728;-77
2023/04/29 10:42:25;;;;;;;30.57;28.73;;;18.10;99.90;;;;;;4974451;28;20203;-77
2023/04/29 10:45:36;;;;;;;41.73;39.67;;;18.70;99.90;;;;;;4974880;28;20184;-76
2023/04/29 10:48:04;;;;;;;23.43;22.23;;;19.50;99.90;;;;;;4936150;29;20186;-76
2023/04/29 10:50:38;;;;;;;16.23;15.47;;;19.80;99.90;;;;;;4963513;28;20188;-76
2023/04/29 10:53:05;;;;;;;26.93;25.57;;;19.60;99.90;;;;;;4975730;28;20580;-76
2023/04/29 10:55:34;;;;;;;39.63;37.73;;;19.20;99.90;;;;;;4993593;28;20283;-76
2023/04/29 10:58:02;;;;;;;40.57;38.63;;;18.80;99.90;;;;;;4993371;28;20275;-76
2023/04/29 11:00:33;;;;;;;39.70;37.83;;;18.70;99.90;;;;;;4994900;28;20640;-76
2023/04/29 11:03:03;;;;;;;38.67;36.63;;;18.90;99.90;;;;;;5009759;28;20292;-76
2023/04/29 11:05:34;;;;;;;49.43;46.87;;;18.90;99.90;;;;;;4993697;28;20661;-76
2023/04/29 11:08:21;;;;;;;19.50;18.23;;;19.20;99.90;;;;;;4992880;28;20195;-76
2023/04/29 11:10:51;;;;;;;10.98;10.48;;;19.90;99.90;;;;;;4993225;28;20191;-76
2023/04/29 11:13:28;;;;;;;15.93;15.15;;;20.40;99.90;;;;;;4991972;28;20184;-76
2023/04/29 11:16:09;;;;;;;17.85;16.98;;;20.00;99.90;;;;;;4989972;28;20208;-76
2023/04/29 11:19:06;;;;;;;19.92;18.80;;;19.80;99.90;;;;;;4991605;28;20569;-77
2023/04/29 11:21:36;;;;;;;29.30;27.67;;;19.70;99.90;;;;;;4991915;28;20239;-77
2023/04/29 11:24:05;;;;;;;21.67;20.60;;;19.50;99.90;;;;;;4991616;28;20275;-77
2023/04/29 11:26:35;;;;;;;20.67;19.57;;;19.60;99.90;;;;;;4992789;28;20201;-77
2023/04/29 11:29:01;;;;;;;13.63;12.93;;;19.90;99.90;;;;;;4990848;28;20207;-77
2023/04/29 11:31:31;;;;;;;11.45;10.90;;;20.30;99.90;;;;;;4972387;28;20185;-77
2023/04/29 11:33:58;;;;;;;15.18;14.30;;;20.60;99.90;;;;;;4972230;28;20193;-77
2023/04/29 11:36:24;;;;;;;21.85;20.85;;;21.00;99.90;;;;;;4973297;28;20209;-76
2023/04/29 11:38:50;;;;;;;30.98;29.30;;;20.90;99.90;;;;;;4971796;28;20191;-77
2023/04/29 11:41:16;;;;;;;22.23;21.08;;;20.20;99.90;;;;;;4972182;28;20605;-77
2023/04/29 11:43:45;;;;;;;14.67;13.90;;;20.00;99.90;;;;;;4973206;28;20205;-76
2023/04/29 11:46:13;;;;;;;23.23;22.13;;;19.60;99.90;;;;;;4953804;28;20205;-76
2023/04/29 11:48:46;;;;;;;14.60;13.70;;;19.50;99.90;;;;;;4953603;28;20252;-76
2023/04/29 11:51:14;;;;;;;23.25;22.15;;;20.40;99.90;;;;;;4953983;29;20597;-77
2023/04/29 11:53:39;;;;;;;34.92;33.22;;;21.10;99.90;;;;;;4953998;28;20532;-76
2023/04/29 11:56:07;;;;;;;32.97;31.30;;;20.80;99.90;;;;;;4953586;29;20224;-76
2023/04/29 11:58:33;;;;;;;30.40;28.83;;;20.40;99.90;;;;;;4979983;28;20188;-76
2023/04/29 12:00:59;;;;;;;27.52;26.05;;;19.70;99.90;;;;;;4992234;28;20188;-76
2023/04/29 12:03:25;;;;;;;21.58;20.35;;;19.50;99.90;;;;;;4992228;28;20183;-76
2023/04/29 12:05:53;;;;;;;19.10;17.90;;;19.60;99.90;;;;;;4987099;28;20217;-76
2023/04/29 12:08:23;;;;;;;23.60;22.00;;;19.80;99.90;;;;;;4979148;28;20184;-76
2023/04/29 12:10:49;;;;;;;28.90;26.90;;;19.70;99.90;;;;;;4991184;28;20184;-76
2023/04/29 12:13:19;;;;;;;19.53;18.37;;;19.60;99.90;;;;;;4992324;28;20273;-76
2023/04/29 12:15:46;;;;;;;15.60;14.77;;;19.30;99.90;;;;;;4990816;28;20696;-76
2023/04/29 12:18:13;;;;;;;26.90;25.35;;;19.60;99.90;;;;;;4991835;28;20176;-76
2023/04/29 12:20:39;;;;;;;24.47;23.20;;;20.10;99.90;;;;;;4992266;28;20239;-76
2023/04/29 12:23:21;;;;;;;21.80;20.55;;;20.10;99.90;;;;;;4980028;28;20212;-77
2023/04/29 12:25:55;;;;;;;26.80;25.52;;;19.80;99.90;;;;;;4989928;28;20291;-77
2023/04/29 12:28:21;;;;;;;26.33;25.03;;;19.90;99.90;;;;;;4990708;28;20316;-76
2023/04/29 12:30:49;;;;;;;28.05;26.65;;;19.70;99.90;;;;;;4992375;28;20656;-76
2023/04/29 12:33:18;;;;;;;25.50;24.05;;;19.60;99.90;;;;;;4992121;28;20255;-76
2023/04/29 12:35:44;;;;;;;28.83;27.27;;;19.80;99.90;;;;;;4992008;28;20576;-76
2023/04/29 12:38:13;;;;;;;16.70;15.65;;;20.70;99.90;;;;;;4987905;28;20184;-76
2023/04/29 12:40:39;;;;;;;8.98;8.18;;;20.90;99.90;;;;;;4972603;28;20195;-76
2023/04/29 12:43:09;;;;;;;11.85;10.95;;;21.10;99.90;;;;;;4972316;28;20271;-76
2023/04/29 12:45:35;;;;;;;16.45;15.38;;;21.60;99.90;;;;;;4973228;28;20201;-75
2023/04/29 12:48:01;;;;;;;16.98;15.93;;;22.00;99.90;;;;;;4971310;28;20536;-76
2023/04/29 12:50:34;;;;;;;13.43;12.52;;;21.10;99.90;;;;;;4971689;28;20227;-76
2023/04/29 12:53:02;;;;;;;8.40;7.80;;;20.30;99.90;;;;;;4996519;28;20212;-76
2023/04/29 12:55:28;;;;;;;14.20;13.10;;;20.10;99.90;;;;;;5002099;28;20200;-76
2023/04/29 12:57:54;;;;;;;24.35;23.00;;;19.60;99.90;;;;;;5002785;28;20321;-76
2023/04/29 13:00:20;;;;;;;23.03;21.63;;;19.30;99.90;;;;;;4992457;28;20176;-76
2023/04/29 13:02:46;;;;;;;19.67;18.57;;;19.70;99.90;;;;;;4990674;28;20567;-76
2023/04/29 13:05:12;;;;;;;21.20;20.10;;;19.50;99.90;;;;;;4991561;28;20275;-76
2023/04/29 13:07:38;;;;;;;23.53;22.27;;;19.40;99.90;;;;;;4981833;28;20207;-77
2023/04/29 13:10:07;;;;;;;19.90;18.90;;;19.30;99.90;;;;;;4971214;28;20195;-76
2023/04/29 13:12:33;;;;;;;21.03;19.77;;;19.40;99.90;;;;;;4974986;28;20720;-76
2023/04/29 13:14:58;;;;;;;20.70;19.57;;;19.40;99.90;;;;;;4976208;28;20220;-76
2023/04/29 13:17:24;;;;;;;20.67;19.48;;;19.30;99.90;;;;;;4976340;28;20673;-76
2023/04/29 13:19:50;;;;;;;24.00;22.67;;;19.30;99.90;;;;;;4976295;28;20181;-76
2023/04/29 13:22:16;;;;;;;23.80;22.27;;;19.50;99.90;;;;;;4976366;28;20188;-76
2023/04/29 13:24:42;;;;;;;26.10;24.47;;;19.50;99.90;;;;;;4975846;28;20288;-76
2023/04/29 13:27:08;;;;;;;24.08;22.77;;;19.60;99.90;;;;;;4974461;28;20188;-77
2023/04/29 13:29:34;;;;;;;23.50;22.20;;;19.70;99.90;;;;;;4974578;28;20216;-77
2023/04/29 13:32:00;;;;;;;15.03;14.20;;;19.90;99.90;;;;;;4975927;28;20224;-76
2023/04/29 13:34:26;;;;;;;25.70;24.00;;;19.90;99.90;;;;;;4974559;28;20600;-76
2023/04/29 13:36:52;;;;;;;27.85;25.75;;;19.70;99.90;;;;;;4988449;28;20726;-76
2023/04/29 13:39:18;;;;;;;23.97;22.57;;;19.60;99.90;;;;;;4994948;28;20223;-76
2023/04/29 13:41:45;;;;;;;22.45;21.13;;;19.50;99.90;;;;;;4993834;28;20555;-76
2023/04/29 13:44:11;;;;;;;23.10;21.77;;;19.30;99.90;;;;;;4993728;28;20802;-76
2023/04/29 13:46:37;;;;;;;17.70;16.40;;;19.80;99.90;;;;;;4993642;28;20208;-76
2023/04/29 13:49:02;;;;;;;7.25;6.75;;;21.10;99.90;;;;;;4993158;28;20652;-76
2023/04/29 13:51:28;;;;;;;13.88;13.10;;;21.40;99.90;;;;;;4975990;28;20189;-76
2023/04/29 13:53:55;;;;;;;16.23;15.23;;;22.00;99.90;;;;;;4973989;28;20736;-76
2023/04/29 13:56:21;;;;;;;14.93;13.85;;;22.00;99.90;;;;;;4974964;28;20221;-76
2023/04/29 13:58:48;;;;;;;18.33;16.92;;;21.80;99.90;;;;;;4974492;28;20181;-76
2023/04/29 14:01:15;;;;;;;19.38;17.95;;;21.10;99.90;;;;;;4973371;28;20207;-76
2023/04/29 14:03:41;;;;;;;10.40;9.43;;;20.20;99.90;;;;;;4975392;28;20224;-76
2023/04/29 14:06:07;;;;;;;19.30;17.73;;;19.30;99.90;;;;;;4994071;28;20677;-76
2023/04/29 14:08:32;;;;;;;26.23;24.73;;;18.70;99.90;;;;;;4993982;28;20181;-77
2023/04/29 14:10:59;;;;;;;18.27;16.83;;;18.30;99.90;;;;;;4994286;28;20180;-77
2023/04/29 14:13:24;;;;;;;13.13;12.07;;;18.30;99.90;;;;;;4994189;28;20184;-76
2023/04/29 14:15:50;;;;;;;12.90;11.90;;;18.30;99.90;;;;;;4993799;28;20254;-77
2023/04/29 14:18:16;;;;;;;11.50;10.50;;;18.10;99.90;;;;;;4990346;28;20174;-77
2023/04/29 14:20:42;;;;;;;12.33;11.33;;;18.10;99.90;;;;;;4973491;28;20184;-77
2023/04/29 14:23:07;;;;;;;11.67;10.63;;;18.40;99.90;;;;;;4972950;28;20205;-76
2023/04/29 14:25:33;;;;;;;11.80;11.00;;;18.80;99.90;;;;;;4974437;28;20287;-77
2023/04/29 14:27:59;;;;;;;12.67;11.73;;;18.90;99.90;;;;;;4974360;28;20177;-77
2023/04/29 14:30:24;;;;;;;14.90;13.77;;;19.30;99.90;;;;;;4974420;28;20181;-77
2023/04/29 14:32:50;;;;;;;25.23;23.57;;;19.60;99.90;;;;;;4989404;28;20176;-77
2023/04/29 14:35:16;;;;;;;22.73;21.33;;;19.80;99.90;;;;;;4992495;28;20247;-77
2023/04/29 14:37:42;;;;;;;24.07;22.37;;;19.80;99.90;;;;;;4993411;28;20204;-77
2023/04/29 14:40:08;;;;;;;30.33;28.67;;;19.50;99.90;;;;;;4995826;28;20189;-76
2023/04/29 14:42:33;;;;;;;26.90;25.30;;;19.40;99.90;;;;;;5013866;28;20219;-76
2023/04/29 14:44:59;;;;;;;29.53;27.83;;;19.50;99.90;;;;;;5003066;28;20215;-76
2023/04/29 14:47:25;;;;;;;28.35;26.63;;;19.50;99.90;;;;;;4975526;28;20174;-77
2023/04/29 14:49:51;;;;;;;27.93;26.33;;;19.30;99.90;;;;;;4974363;28;20220;-77
2023/04/29 14:52:17;;;;;;;22.13;20.73;;;19.10;99.90;;;;;;4974603;28;20181;-77
2023/04/29 14:54:42;;;;;;;25.53;23.93;;;19.20;99.90;;;;;;4972946;28;20185;-76
2023/04/29 14:57:09;;;;;;;19.70;18.53;;;19.00;99.90;;;;;;4973679;28;20509;-78
2023/04/29 14:59:35;;;;;;;12.53;11.63;;;18.50;99.90;;;;;;4974118;28;20177;-77
2023/04/29 15:02:01;;;;;;;11.27;10.13;;;18.30;99.90;;;;;;4992871;28;20656;-77
2023/04/29 15:04:27;;;;;;;11.70;10.77;;;18.10;99.90;;;;;;4993356;28;20779;-77
2023/04/29 15:06:53;;;;;;;11.57;10.77;;;17.90;99.90;;;;;;4991643;28;20680;-77
2023/04/29 15:09:19;;;;;;;17.37;16.27;;;17.70;99.90;;;;;;4993262;28;20188;-77
2023/04/29 15:11:45;;;;;;;29.50;27.80;;;17.70;99.90;;;;;;4993278;28;20239;-77
2023/04/29 15:14:10;;;;;;;30.07;28.17;;;17.90;99.90;;;;;;4988683;28;20185;-77
2023/04/29 15:16:36;;;;;;;26.23;24.70;;;17.90;99.90;;;;;;5012910;23;20272;-79
2023/04/29 15:19:02;;;;;;;22.10;20.80;;;18.00;99.90;;;;;;4999387;28;20239;-78
2023/04/29 15:21:29;;;;;;;11.17;10.47;;;18.30;99.90;;;;;;5000102;28;20247;-80
2023/04/29 15:23:54;;;;;;;11.40;10.60;;;18.40;99.90;;;;;;5002555;28;20653;-80
2023/04/29 15:26:20;;;;;;;10.83;9.90;;;18.50;99.90;;;;;;5002055;28;20203;-80
2023/04/29 15:28:46;;;;;;;12.10;11.17;;;18.50;99.90;;;;;;5004247;28;20183;-78
2023/04/29 15:31:12;;;;;;;11.10;10.30;;;18.50;99.90;;;;;;5003497;28;20184;-79